sensor_id;sensor_type;location;lat;lon;timestamp;pressure;altitude;pressure_sealevel;temperature;humidity
27202;BME280;14717;46.924;15.474;2023-04-01T00:01:20;96593.00;;;9.45;100.00
27202;BME280;14717;46.924;15.474;2023-04-01T00:03:45;96578.22;;;9.41;100.00
27202;BME280;14717;46.924;15.474;2023-04-01T00:06:15;96575.47;;;9.41;100.00
27202;BME280;14717;46.924;15.474;2023-04-01T00:08:41;96571.59;;;9.42;100.00
27202;BME280;14717;46.924;15.474;2023-04-01T00:11:06;96560.25;;;9.43;100.00
27202;BME280;14717;46.924;15.474;2023-04-01T00:13:32;96567.84;;;9.46;100.00
27202;BME280;14717;46.924;15.474;2023-04-01T00:15:57;96561.06;;;9.44;100.00
27202;BME280;14717;46.924;15.474;2023-04-01T00:18:23;96561.84;;;9.44;100.00
27202;BME280;14717;46.924;15.474;2023-04-01T00:20:50;96561.81;;;9.36;100.00
27202;BME280;14717;46.924;15.474;2023-04-01T00:23:18;96555.69;;;9.39;100.00
27202;BME280;14717;46.924;15.474;2023-04-01T00:25:45;96557.63;;;9.38;100.00
27202;BME280;14717;46.924;15.474;2023-04-01T00:28:12;96551.75;;;9.32;100.00
27202;BME280;14717;46.924;15.474;2023-04-01T00:30:37;96558.72;;;9.29;100.00
27202;BME280;14717;46.924;15.474;2023-04-01T00:33:03;96556.44;;;9.31;100.00
27202;BME280;14717;46.924;15.474;2023-04-01T00:35:29;96553.19;;;9.29;100.00
27202;BME280;14717;46.924;15.474;2023-04-01T00:37:55;96554.59;;;9.18;100.00
27202;BME280;14717;46.924;15.474;2023-04-01T00:40:33;96557.72;;;9.25;100.00
27202;BME280;14717;46.924;15.474;2023-04-01T00:42:59;96548.19;;;9.31;100.00
27202;BME280;14717;46.924;15.474;2023-04-01T00:45:35;96547.56;;;9.34;100.00
27202;BME280;14717;46.924;15.474;2023-04-01T00:48:05;96549.69;;;9.37;100.00
27202;BME280;14717;46.924;15.474;2023-04-01T00:50:33;96558.56;;;9.34;100.00
27202;BME280;14717;46.924;15.474;2023-04-01T00:53:00;96551.53;;;9.20;100.00
27202;BME280;14717;46.924;15.474;2023-04-01T00:55:28;96544.63;;;9.00;100.00
27202;BME280;14717;46.924;15.474;2023-04-01T00:57:57;96553.31;;;8.72;100.00
27202;BME280;14717;46.924;15.474;2023-04-01T01:00:23;96555.22;;;8.63;100.00
27202;BME280;14717;46.924;15.474;2023-04-01T01:02:50;96549.63;;;8.77;100.00
27202;BME280;14717;46.924;15.474;2023-04-01T01:05:17;96532.59;;;8.96;100.00
27202;BME280;14717;46.924;15.474;2023-04-01T01:10:32;96527.53;;;8.90;100.00
27202;BME280;14717;46.924;15.474;2023-04-01T01:15:40;96529.34;;;8.94;100.00
27202;BME280;14717;46.924;15.474;2023-04-01T01:18:33;96522.38;;;8.97;100.00
27202;BME280;14717;46.924;15.474;2023-04-01T01:26:48;96512.34;;;8.92;100.00
27202;BME280;14717;46.924;15.474;2023-04-01T01:37:30;96498.47;;;8.54;100.00
27202;BME280;14717;46.924;15.474;2023-04-01T01:40:00;96502.69;;;8.51;100.00
27202;BME280;14717;46.924;15.474;2023-04-01T01:42:28;96499.22;;;8.46;100.00
27202;BME280;14717;46.924;15.474;2023-04-01T01:44:56;96499.09;;;8.51;100.00
27202;BME280;14717;46.924;15.474;2023-04-01T01:47:25;96492.22;;;8.62;100.00
27202;BME280;14717;46.924;15.474;2023-04-01T01:49:51;96489.16;;;8.63;100.00
27202;BME280;14717;46.924;15.474;2023-04-01T01:52:18;96480.41;;;8.61;100.00
27202;BME280;14717;46.924;15.474;2023-04-01T01:54:54;96475.97;;;8.52;100.00
27202;BME280;14717;46.924;15.474;2023-04-01T01:57:24;96478.53;;;8.48;100.00
27202;BME280;14717;46.924;15.474;2023-04-01T01:59:53;96481.97;;;8.54;100.00
27202;BME280;14717;46.924;15.474;2023-04-01T02:02:21;96477.47;;;8.58;100.00
27202;BME280;14717;46.924;15.474;2023-04-01T02:04:49;96477.53;;;8.66;100.00
27202;BME280;14717;46.924;15.474;2023-04-01T02:07:27;96485.47;;;8.68;100.00
27202;BME280;14717;46.924;15.474;2023-04-01T02:09:53;96483.03;;;8.66;100.00
27202;BME280;14717;46.924;15.474;2023-04-01T02:12:20;96498.34;;;8.37;100.00
27202;BME280;14717;46.924;15.474;2023-04-01T02:15:11;96491.72;;;8.38;100.00
27202;BME280;14717;46.924;15.474;2023-04-01T02:17:42;96490.09;;;8.37;100.00
27202;BME280;14717;46.924;15.474;2023-04-01T02:22:56;96487.84;;;8.39;100.00
27202;BME280;14717;46.924;15.474;2023-04-01T02:25:29;96480.59;;;8.43;100.00
27202;BME280;14717;46.924;15.474;2023-04-01T02:27:57;96478.09;;;8.33;100.00
27202;BME280;14717;46.924;15.474;2023-04-01T02:30:23;96480.88;;;8.20;100.00
27202;BME280;14717;46.924;15.474;2023-04-01T02:32:50;96485.41;;;8.03;100.00
27202;BME280;14717;46.924;15.474;2023-04-01T02:35:17;96492.03;;;8.02;100.00
27202;BME280;14717;46.924;15.474;2023-04-01T02:37:44;96497.09;;;8.08;100.00
27202;BME280;14717;46.924;15.474;2023-04-01T02:40:12;96500.78;;;8.04;100.00
27202;BME280;14717;46.924;15.474;2023-04-01T02:42:38;96496.09;;;8.04;100.00
27202;BME280;14717;46.924;15.474;2023-04-01T02:45:04;96499.59;;;7.96;100.00
27202;BME280;14717;46.924;15.474;2023-04-01T02:47:30;96498.78;;;7.96;100.00
27202;BME280;14717;46.924;15.474;2023-04-01T02:49:56;96504.88;;;7.93;100.00
27202;BME280;14717;46.924;15.474;2023-04-01T02:52:27;96502.63;;;7.95;100.00
27202;BME280;14717;46.924;15.474;2023-04-01T02:54:53;96497.94;;;7.95;100.00
27202;BME280;14717;46.924;15.474;2023-04-01T02:57:19;96499.47;;;8.01;100.00
27202;BME280;14717;46.924;15.474;2023-04-01T02:59:45;96500.84;;;7.77;100.00
27202;BME280;14717;46.924;15.474;2023-04-01T03:02:10;96492.09;;;7.75;100.00
27202;BME280;14717;46.924;15.474;2023-04-01T03:04:36;96502.44;;;7.91;100.00
27202;BME280;14717;46.924;15.474;2023-04-01T03:07:01;96495.91;;;8.01;100.00
27202;BME280;14717;46.924;15.474;2023-04-01T03:09:27;96509.38;;;7.89;100.00
27202;BME280;14717;46.924;15.474;2023-04-01T03:11:53;96515.28;;;7.96;100.00
27202;BME280;14717;46.924;15.474;2023-04-01T03:14:19;96525.53;;;7.90;100.00
27202;BME280;14717;46.924;15.474;2023-04-01T03:16:44;96519.63;;;7.97;100.00
27202;BME280;14717;46.924;15.474;2023-04-01T03:19:09;96524.63;;;7.95;100.00
27202;BME280;14717;46.924;15.474;2023-04-01T03:21:35;96522.59;;;7.87;100.00
27202;BME280;14717;46.924;15.474;2023-04-01T03:24:00;96528.09;;;7.87;100.00
27202;BME280;14717;46.924;15.474;2023-04-01T03:26:25;96533.72;;;7.82;100.00
27202;BME280;14717;46.924;15.474;2023-04-01T03:28:54;96537.00;;;7.84;100.00
27202;BME280;14717;46.924;15.474;2023-04-01T03:31:20;96535.44;;;7.91;100.00
27202;BME280;14717;46.924;15.474;2023-04-01T03:33:46;96515.28;;;7.96;100.00
27202;BME280;14717;46.924;15.474;2023-04-01T03:36:11;96539.28;;;8.04;100.00
27202;BME280;14717;46.924;15.474;2023-04-01T03:38:38;96532.44;;;8.14;100.00
27202;BME280;14717;46.924;15.474;2023-04-01T03:41:03;96540.91;;;8.04;100.00
27202;BME280;14717;46.924;15.474;2023-04-01T03:43:29;96538.75;;;8.02;100.00
27202;BME280;14717;46.924;15.474;2023-04-01T03:45:55;96528.41;;;7.99;100.00
27202;BME280;14717;46.924;15.474;2023-04-01T03:48:23;96534.63;;;7.91;100.00
27202;BME280;14717;46.924;15.474;2023-04-01T03:50:49;96536.03;;;7.88;100.00
27202;BME280;14717;46.924;15.474;2023-04-01T03:53:14;96537.28;;;7.82;100.00
27202;BME280;14717;46.924;15.474;2023-04-01T03:55:40;96540.94;;;7.91;100.00
27202;BME280;14717;46.924;15.474;2023-04-01T03:58:06;96538.00;;;7.88;100.00
27202;BME280;14717;46.924;15.474;2023-04-01T04:00:32;96546.84;;;7.85;100.00
27202;BME280;14717;46.924;15.474;2023-04-01T04:02:58;96532.81;;;7.73;100.00
27202;BME280;14717;46.924;15.474;2023-04-01T04:05:25;96531.38;;;7.75;100.00
27202;BME280;14717;46.924;15.474;2023-04-01T04:07:51;96538.72;;;7.80;100.00
27202;BME280;14717;46.924;15.474;2023-04-01T04:10:16;96535.03;;;7.84;100.00
27202;BME280;14717;46.924;15.474;2023-04-01T04:12:42;96532.03;;;7.72;100.00
27202;BME280;14717;46.924;15.474;2023-04-01T04:15:08;96539.13;;;7.60;100.00
27202;BME280;14717;46.924;15.474;2023-04-01T04:17:33;96542.19;;;7.59;100.00
27202;BME280;14717;46.924;15.474;2023-04-01T04:19:59;96543.41;;;7.66;100.00
27202;BME280;14717;46.924;15.474;2023-04-01T04:22:24;96548.59;;;7.54;100.00
27202;BME280;14717;46.924;15.474;2023-04-01T04:24:49;96546.88;;;7.45;100.00
27202;BME280;14717;46.924;15.474;2023-04-01T04:27:15;96543.94;;;7.41;100.00
27202;BME280;14717;46.924;15.474;2023-04-01T04:29:40;96548.09;;;7.39;100.00
27202;BME280;14717;46.924;15.474;2023-04-01T04:32:06;96555.13;;;7.31;100.00
27202;BME280;14717;46.924;15.474;2023-04-01T04:34:31;96552.88;;;7.33;100.00
27202;BME280;14717;46.924;15.474;2023-04-01T04:36:57;96551.53;;;7.44;100.00
27202;BME280;14717;46.924;15.474;2023-04-01T04:39:22;96552.47;;;7.53;100.00
27202;BME280;14717;46.924;15.474;2023-04-01T04:41:48;96552.56;;;7.62;100.00
27202;BME280;14717;46.924;15.474;2023-04-01T04:44:13;96557.16;;;7.66;100.00
27202;BME280;14717;46.924;15.474;2023-04-01T04:46:38;96553.81;;;7.69;100.00
27202;BME280;14717;46.924;15.474;2023-04-01T04:49:05;96539.22;;;7.68;100.00
27202;BME280;14717;46.924;15.474;2023-04-01T04:51:30;96541.38;;;7.71;100.00
27202;BME280;14717;46.924;15.474;2023-04-01T04:53:59;96538.31;;;7.73;100.00
27202;BME280;14717;46.924;15.474;2023-04-01T04:56:24;96535.09;;;7.58;100.00
27202;BME280;14717;46.924;15.474;2023-04-01T04:58:51;96539.03;;;7.52;100.00
27202;BME280;14717;46.924;15.474;2023-04-01T05:01:17;96538.53;;;7.63;100.00
27202;BME280;14717;46.924;15.474;2023-04-01T05:03:43;96541.97;;;7.68;100.00
27202;BME280;14717;46.924;15.474;2023-04-01T05:06:10;96547.47;;;7.68;100.00
27202;BME280;14717;46.924;15.474;2023-04-01T05:08:36;96551.34;;;7.81;100.00
27202;BME280;14717;46.924;15.474;2023-04-01T05:11:03;96545.75;;;7.72;100.00
27202;BME280;14717;46.924;15.474;2023-04-01T05:13:31;96548.19;;;7.74;100.00
27202;BME280;14717;46.924;15.474;2023-04-01T05:15:57;96549.50;;;7.76;100.00
27202;BME280;14717;46.924;15.474;2023-04-01T05:18:22;96538.63;;;7.71;100.00
27202;BME280;14717;46.924;15.474;2023-04-01T05:20:52;96546.56;;;7.73;100.00
27202;BME280;14717;46.924;15.474;2023-04-01T05:23:19;96545.44;;;7.87;100.00
27202;BME280;14717;46.924;15.474;2023-04-01T05:25:47;96545.97;;;7.76;100.00
27202;BME280;14717;46.924;15.474;2023-04-01T05:28:12;96536.78;;;7.67;100.00
27202;BME280;14717;46.924;15.474;2023-04-01T05:30:41;96543.59;;;7.83;100.00
27202;BME280;14717;46.924;15.474;2023-04-01T05:33:07;96557.00;;;7.98;100.00
27202;BME280;14717;46.924;15.474;2023-04-01T05:35:33;96547.44;;;8.08;100.00
27202;BME280;14717;46.924;15.474;2023-04-01T05:37:58;96559.53;;;8.07;100.00
27202;BME280;14717;46.924;15.474;2023-04-01T05:40:24;96566.38;;;7.97;100.00
27202;BME280;14717;46.924;15.474;2023-04-01T05:42:49;96565.97;;;7.90;100.00
27202;BME280;14717;46.924;15.474;2023-04-01T05:45:15;96561.19;;;7.95;100.00
27202;BME280;14717;46.924;15.474;2023-04-01T05:47:41;96556.91;;;8.03;100.00
27202;BME280;14717;46.924;15.474;2023-04-01T05:50:08;96562.78;;;8.09;100.00
27202;BME280;14717;46.924;15.474;2023-04-01T05:52:33;96566.16;;;8.20;100.00
27202;BME280;14717;46.924;15.474;2023-04-01T05:54:59;96554.41;;;8.28;100.00
27202;BME280;14717;46.924;15.474;2023-04-01T05:57:25;96560.66;;;8.20;100.00
27202;BME280;14717;46.924;15.474;2023-04-01T05:59:51;96561.28;;;8.17;100.00
27202;BME280;14717;46.924;15.474;2023-04-01T06:02:17;96563.50;;;8.15;100.00
27202;BME280;14717;46.924;15.474;2023-04-01T06:04:43;96567.97;;;8.24;100.00
27202;BME280;14717;46.924;15.474;2023-04-01T06:07:14;96559.59;;;8.29;100.00
27202;BME280;14717;46.924;15.474;2023-04-01T06:09:40;96553.44;;;8.46;100.00
27202;BME280;14717;46.924;15.474;2023-04-01T06:17:44;96556.13;;;8.81;100.00
27202;BME280;14717;46.924;15.474;2023-04-01T06:25:54;96558.00;;;9.15;100.00
27202;BME280;14717;46.924;15.474;2023-04-01T06:34:27;96571.50;;;9.25;99.90
27202;BME280;14717;46.924;15.474;2023-04-01T06:47:23;96570.16;;;9.53;100.00
27202;BME280;14717;46.924;15.474;2023-04-01T06:52:33;96572.31;;;9.64;100.00
27202;BME280;14717;46.924;15.474;2023-04-01T06:55:23;96587.78;;;9.74;100.00
27202;BME280;14717;46.924;15.474;2023-04-01T06:57:54;96581.56;;;9.60;100.00
27202;BME280;14717;46.924;15.474;2023-04-01T07:00:27;96588.69;;;9.61;99.98
27202;BME280;14717;46.924;15.474;2023-04-01T07:03:18;96596.47;;;9.59;99.92
27202;BME280;14717;46.924;15.474;2023-04-01T07:05:45;96600.31;;;9.49;100.00
27202;BME280;14717;46.924;15.474;2023-04-01T07:08:20;96597.56;;;9.49;100.00
27202;BME280;14717;46.924;15.474;2023-04-01T07:10:54;96607.28;;;9.47;100.00
27202;BME280;14717;46.924;15.474;2023-04-01T07:13:31;96594.84;;;9.58;100.00
27202;BME280;14717;46.924;15.474;2023-04-01T07:16:21;96610.13;;;9.64;99.76
27202;BME280;14717;46.924;15.474;2023-04-01T07:21:45;96606.47;;;9.85;98.82
27202;BME280;14717;46.924;15.474;2023-04-01T07:24:25;96599.75;;;9.99;98.61
27202;BME280;14717;46.924;15.474;2023-04-01T07:26:55;96599.78;;;10.08;96.49
27202;BME280;14717;46.924;15.474;2023-04-01T07:29:21;96605.47;;;10.11;95.56
27202;BME280;14717;46.924;15.474;2023-04-01T07:34:26;96617.56;;;10.40;93.38
27202;BME280;14717;46.924;15.474;2023-04-01T07:37:17;96607.50;;;10.53;93.00
27202;BME280;14717;46.924;15.474;2023-04-01T07:39:53;96613.50;;;10.55;92.11
27202;BME280;14717;46.924;15.474;2023-04-01T07:56:24;96613.81;;;11.29;89.60
27202;BME280;14717;46.924;15.474;2023-04-01T08:02:01;96612.81;;;11.67;84.68
27202;BME280;14717;46.924;15.474;2023-04-01T08:05:00;96614.00;;;11.86;83.56
27202;BME280;14717;46.924;15.474;2023-04-01T08:10:40;96625.44;;;12.22;80.92
27202;BME280;14717;46.924;15.474;2023-04-01T08:16:03;96606.22;;;12.74;79.83
27202;BME280;14717;46.924;15.474;2023-04-01T08:21:55;96616.22;;;13.27;73.17
27202;BME280;14717;46.924;15.474;2023-04-01T08:23:57;96602.41;;;13.39;71.67
27202;BME280;14717;46.924;15.474;2023-04-01T08:26:39;96610.34;;;13.29;72.30
27202;BME280;14717;46.924;15.474;2023-04-01T08:29:17;96610.22;;;13.58;71.60
27202;BME280;14717;46.924;15.474;2023-04-01T08:31:53;96618.00;;;13.64;72.30
27202;BME280;14717;46.924;15.474;2023-04-01T08:34:25;96602.78;;;13.94;71.32
27202;BME280;14717;46.924;15.474;2023-04-01T08:36:57;96604.66;;;14.02;72.05
27202;BME280;14717;46.924;15.474;2023-04-01T08:39:36;96605.50;;;14.38;70.55
27202;BME280;14717;46.924;15.474;2023-04-01T08:53:47;96599.06;;;15.20;62.94
27202;BME280;14717;46.924;15.474;2023-04-01T08:56:22;96605.06;;;15.10;60.76
27202;BME280;14717;46.924;15.474;2023-04-01T08:59:16;96605.31;;;15.17;65.51
27202;BME280;14717;46.924;15.474;2023-04-01T09:15:18;96621.72;;;15.34;58.27
27202;BME280;14717;46.924;15.474;2023-04-01T09:40:15;96626.16;;;16.20;54.42
27202;BME280;14717;46.924;15.474;2023-04-01T10:03:01;96630.88;;;15.89;50.56
27202;BME280;14717;46.924;15.474;2023-04-01T10:44:18;96638.13;;;16.82;45.84
27202;BME280;14717;46.924;15.474;2023-04-01T10:56:11;96633.66;;;17.11;45.13
27202;BME280;14717;46.924;15.474;2023-04-01T11:15:29;96639.31;;;16.65;43.38
27202;BME280;14717;46.924;15.474;2023-04-01T11:24:21;96638.53;;;16.50;44.48
27202;BME280;14717;46.924;15.474;2023-04-01T11:27:10;96631.66;;;16.47;43.53
27202;BME280;14717;46.924;15.474;2023-04-01T11:30:12;96624.97;;;16.82;44.23
27202;BME280;14717;46.924;15.474;2023-04-01T11:35:55;96627.81;;;17.01;44.83
27202;BME280;14717;46.924;15.474;2023-04-01T11:38:45;96631.72;;;17.31;44.91
27202;BME280;14717;46.924;15.474;2023-04-01T11:41:54;96638.31;;;17.23;42.07
27202;BME280;14717;46.924;15.474;2023-04-01T11:44:25;96625.63;;;17.10;43.93
27202;BME280;14717;46.924;15.474;2023-04-01T11:50:28;96627.34;;;17.14;43.56
27202;BME280;14717;46.924;15.474;2023-04-01T11:53:32;96635.53;;;17.23;43.44
27202;BME280;14717;46.924;15.474;2023-04-01T12:04:46;96632.41;;;17.09;43.36
27202;BME280;14717;46.924;15.474;2023-04-01T12:18:20;96627.41;;;17.18;42.61
27202;BME280;14717;46.924;15.474;2023-04-01T12:31:24;96630.06;;;17.45;42.05
27202;BME280;14717;46.924;15.474;2023-04-01T12:34:23;96627.31;;;17.30;41.36
27202;BME280;14717;46.924;15.474;2023-04-01T12:50:39;96619.31;;;17.13;40.14
27202;BME280;14717;46.924;15.474;2023-04-01T13:02:00;96612.59;;;17.14;40.41
27202;BME280;14717;46.924;15.474;2023-04-01T13:20:58;96585.22;;;17.19;39.39
27202;BME280;14717;46.924;15.474;2023-04-01T13:23:56;96586.63;;;17.48;41.32
27202;BME280;14717;46.924;15.474;2023-04-01T13:26:27;96592.94;;;17.26;39.84
27202;BME280;14717;46.924;15.474;2023-04-01T13:34:15;96589.72;;;17.08;40.58
27202;BME280;14717;46.924;15.474;2023-04-01T13:37:04;96591.63;;;17.39;39.08
27202;BME280;14717;46.924;15.474;2023-04-01T13:45:12;96586.91;;;17.61;38.31
27202;BME280;14717;46.924;15.474;2023-04-01T13:53:11;96572.72;;;17.70;38.77
27202;BME280;14717;46.924;15.474;2023-04-01T13:55:48;96563.16;;;18.12;37.43
27202;BME280;14717;46.924;15.474;2023-04-01T14:01:24;96555.13;;;18.55;36.47
27202;BME280;14717;46.924;15.474;2023-04-01T14:06:37;96542.50;;;18.90;35.68
27202;BME280;14717;46.924;15.474;2023-04-01T14:09:24;96541.78;;;18.71;36.59
27202;BME280;14717;46.924;15.474;2023-04-01T14:14:51;96546.13;;;18.68;38.02
27202;BME280;14717;46.924;15.474;2023-04-01T14:28:15;96542.44;;;18.61;34.45
27202;BME280;14717;46.924;15.474;2023-04-01T14:39:43;96544.97;;;18.21;34.98
27202;BME280;14717;46.924;15.474;2023-04-01T14:42:25;96522.56;;;18.43;34.59
27202;BME280;14717;46.924;15.474;2023-04-01T14:45:02;96526.41;;;18.58;35.46
27202;BME280;14717;46.924;15.474;2023-04-01T14:47:56;96529.84;;;18.74;34.39
27202;BME280;14717;46.924;15.474;2023-04-01T14:50:27;96528.16;;;18.69;34.07
27202;BME280;14717;46.924;15.474;2023-04-01T14:55:48;96527.31;;;18.39;34.17
27202;BME280;14717;46.924;15.474;2023-04-01T14:58:17;96522.47;;;18.62;34.45
27202;BME280;14717;46.924;15.474;2023-04-01T15:00:47;96522.63;;;18.73;33.99
27202;BME280;14717;46.924;15.474;2023-04-01T15:03:21;96523.09;;;18.78;34.00
27202;BME280;14717;46.924;15.474;2023-04-01T15:06:27;96524.13;;;18.92;33.66
27202;BME280;14717;46.924;15.474;2023-04-01T15:11:54;96525.66;;;18.13;35.95
27202;BME280;14717;46.924;15.474;2023-04-01T15:17:55;96512.91;;;18.15;35.78
27202;BME280;14717;46.924;15.474;2023-04-01T15:20:45;96514.16;;;18.43;33.78
27202;BME280;14717;46.924;15.474;2023-04-01T15:23:22;96518.06;;;18.61;35.11
27202;BME280;14717;46.924;15.474;2023-04-01T15:31:29;96515.56;;;18.31;34.84
27202;BME280;14717;46.924;15.474;2023-04-01T15:47:32;96513.88;;;18.04;35.10
27202;BME280;14717;46.924;15.474;2023-04-01T15:58:42;96517.91;;;18.06;34.90
27202;BME280;14717;46.924;15.474;2023-04-01T16:04:15;96509.09;;;17.82;34.41
27202;BME280;14717;46.924;15.474;2023-04-01T16:07:01;96511.31;;;17.73;36.54
27202;BME280;14717;46.924;15.474;2023-04-01T16:13:10;96515.63;;;17.48;35.47
27202;BME280;14717;46.924;15.474;2023-04-01T16:20:25;96510.72;;;17.42;35.45
27202;BME280;14717;46.924;15.474;2023-04-01T16:23:09;96514.13;;;17.17;37.27
27202;BME280;14717;46.924;15.474;2023-04-01T16:25:42;96514.50;;;16.97;37.71
27202;BME280;14717;46.924;15.474;2023-04-01T16:31:06;96517.44;;;17.03;38.17
27202;BME280;14717;46.924;15.474;2023-04-01T16:36:05;96522.44;;;16.95;38.20
27202;BME280;14717;46.924;15.474;2023-04-01T16:38:42;96519.44;;;16.84;39.45
27202;BME280;14717;46.924;15.474;2023-04-01T16:43:46;96521.72;;;16.63;40.15
27202;BME280;14717;46.924;15.474;2023-04-01T16:48:58;96521.53;;;16.22;41.54
27202;BME280;14717;46.924;15.474;2023-04-01T17:02:31;96545.06;;;16.10;42.22
27202;BME280;14717;46.924;15.474;2023-04-01T17:05:09;96539.41;;;16.06;41.44
27202;BME280;14717;46.924;15.474;2023-04-01T17:10:28;96545.34;;;15.89;41.22
27202;BME280;14717;46.924;15.474;2023-04-01T17:20:43;96565.09;;;15.42;42.84
27202;BME280;14717;46.924;15.474;2023-04-01T17:23:12;96573.91;;;15.44;42.65
27202;BME280;14717;46.924;15.474;2023-04-01T17:25:52;96573.16;;;15.32;43.45
27202;BME280;14717;46.924;15.474;2023-04-01T17:28:45;96578.88;;;15.23;45.08
27202;BME280;14717;46.924;15.474;2023-04-01T17:31:41;96589.06;;;15.19;44.88
27202;BME280;14717;46.924;15.474;2023-04-01T17:34:37;96579.31;;;15.13;45.13
27202;BME280;14717;46.924;15.474;2023-04-01T17:37:22;96580.50;;;15.12;44.70
27202;BME280;14717;46.924;15.474;2023-04-01T17:43:00;96593.03;;;15.18;44.62
27202;BME280;14717;46.924;15.474;2023-04-01T17:45:40;96600.22;;;15.07;45.89
27202;BME280;14717;46.924;15.474;2023-04-01T17:54:15;96622.41;;;14.56;49.93
27202;BME280;14717;46.924;15.474;2023-04-01T17:59:47;96628.78;;;14.57;49.42
27202;BME280;14717;46.924;15.474;2023-04-01T18:02:42;96640.84;;;14.61;47.67
27202;BME280;14717;46.924;15.474;2023-04-01T18:08:22;96651.13;;;14.84;46.49
27202;BME280;14717;46.924;15.474;2023-04-01T18:11:10;96649.03;;;14.93;46.16
27202;BME280;14717;46.924;15.474;2023-04-01T18:13:59;96661.69;;;14.67;48.05
27202;BME280;14717;46.924;15.474;2023-04-01T18:16:56;96673.94;;;14.42;49.30
27202;BME280;14717;46.924;15.474;2023-04-01T18:25:19;96682.09;;;13.71;62.39
27202;BME280;14717;46.924;15.474;2023-04-01T18:28:35;96688.47;;;13.51;59.46
27202;BME280;14717;46.924;15.474;2023-04-01T18:30:35;96695.72;;;13.23;62.68
27202;BME280;14717;46.924;15.474;2023-04-01T18:38:29;96690.69;;;13.37;66.42
27202;BME280;14717;46.924;15.474;2023-04-01T18:41:15;96694.44;;;13.41;65.66
27202;BME280;14717;46.924;15.474;2023-04-01T18:43:59;96693.47;;;13.37;64.10
27202;BME280;14717;46.924;15.474;2023-04-01T18:52:48;96700.78;;;13.42;62.84
27202;BME280;14717;46.924;15.474;2023-04-01T18:55:30;96710.25;;;13.61;62.22
27202;BME280;14717;46.924;15.474;2023-04-01T19:00:47;96751.94;;;13.32;65.08
27202;BME280;14717;46.924;15.474;2023-04-01T19:03:34;96758.78;;;13.06;66.94
27202;BME280;14717;46.924;15.474;2023-04-01T19:06:15;96768.16;;;13.22;58.51
27202;BME280;14717;46.924;15.474;2023-04-01T19:08:44;96769.66;;;13.19;60.31
27202;BME280;14717;46.924;15.474;2023-04-01T19:11:19;96779.13;;;13.18;61.14
27202;BME280;14717;46.924;15.474;2023-04-01T19:16:54;96785.16;;;12.92;62.92
27202;BME280;14717;46.924;15.474;2023-04-01T19:25:24;96806.81;;;12.98;59.69
27202;BME280;14717;46.924;15.474;2023-04-01T19:27:53;96813.53;;;12.80;62.70
27202;BME280;14717;46.924;15.474;2023-04-01T19:36:29;96839.66;;;12.71;63.97
27202;BME280;14717;46.924;15.474;2023-04-01T19:39:05;96841.13;;;12.69;63.97
27202;BME280;14717;46.924;15.474;2023-04-01T19:41:52;96852.38;;;12.72;67.80
27202;BME280;14717;46.924;15.474;2023-04-01T19:47:18;96841.78;;;12.66;70.95
27202;BME280;14717;46.924;15.474;2023-04-01T19:52:31;96846.50;;;12.74;70.42
27202;BME280;14717;46.924;15.474;2023-04-01T19:58:02;96854.66;;;12.62;69.93
27202;BME280;14717;46.924;15.474;2023-04-01T20:00:31;96844.94;;;12.47;71.72
27202;BME280;14717;46.924;15.474;2023-04-01T20:03:11;96843.19;;;12.26;76.35
27202;BME280;14717;46.924;15.474;2023-04-01T20:05:55;96822.84;;;12.14;77.11
27202;BME280;14717;46.924;15.474;2023-04-01T20:08:36;96826.09;;;12.07;76.45
27202;BME280;14717;46.924;15.474;2023-04-01T20:14:03;96815.34;;;12.23;76.14
27202;BME280;14717;46.924;15.474;2023-04-01T20:17:01;96820.38;;;12.21;74.21
27202;BME280;14717;46.924;15.474;2023-04-01T20:19:36;96823.34;;;11.99;75.56
27202;BME280;14717;46.924;15.474;2023-04-01T20:28:00;96828.53;;;11.50;79.53
27202;BME280;14717;46.924;15.474;2023-04-01T20:30:44;96833.59;;;11.56;79.20
27202;BME280;14717;46.924;15.474;2023-04-01T20:42:26;96847.28;;;11.87;78.32
27202;BME280;14717;46.924;15.474;2023-04-01T20:47:56;96852.81;;;11.95;76.34
27202;BME280;14717;46.924;15.474;2023-04-01T20:50:41;96854.75;;;11.94;75.94
27202;BME280;14717;46.924;15.474;2023-04-01T20:53:18;96852.19;;;11.98;73.79
27202;BME280;14717;46.924;15.474;2023-04-01T20:56:11;96855.28;;;11.96;73.84
27202;BME280;14717;46.924;15.474;2023-04-01T21:01:47;96863.06;;;11.86;76.44
27202;BME280;14717;46.924;15.474;2023-04-01T21:04:27;96872.34;;;11.73;76.78
27202;BME280;14717;46.924;15.474;2023-04-01T21:12:33;96881.63;;;11.69;77.44
27202;BME280;14717;46.924;15.474;2023-04-01T21:17:52;96888.13;;;11.64;76.34
27202;BME280;14717;46.924;15.474;2023-04-01T21:20:47;96893.16;;;11.62;78.10
27202;BME280;14717;46.924;15.474;2023-04-01T21:26:06;96898.94;;;11.36;78.33
27202;BME280;14717;46.924;15.474;2023-04-01T21:28:44;96900.94;;;11.05;80.04
27202;BME280;14717;46.924;15.474;2023-04-01T21:36:54;96912.50;;;10.77;81.87
27202;BME280;14717;46.924;15.474;2023-04-01T21:39:54;96903.91;;;10.78;81.71
27202;BME280;14717;46.924;15.474;2023-04-01T22:07:29;96932.31;;;9.92;89.00
27202;BME280;14717;46.924;15.474;2023-04-01T22:12:30;96923.16;;;9.96;89.57
27202;BME280;14717;46.924;15.474;2023-04-01T22:17:34;96935.34;;;10.17;88.78
27202;BME280;14717;46.924;15.474;2023-04-01T22:26:05;96925.91;;;10.18;89.88
27202;BME280;14717;46.924;15.474;2023-04-01T22:31:36;96929.72;;;10.09;88.97
27202;BME280;14717;46.924;15.474;2023-04-01T22:55:49;96939.31;;;9.63;91.87
27202;BME280;14717;46.924;15.474;2023-04-01T22:58:20;96945.06;;;9.66;91.82
27202;BME280;14717;46.924;15.474;2023-04-01T23:00:52;96937.56;;;9.80;91.52
27202;BME280;14717;46.924;15.474;2023-04-01T23:03:24;96937.34;;;9.90;90.60